KRIC/RIC METAR and TAF weather

Enter ICAO airport designator
Station Type Date Time Source
KRIC METAR 2019/06/17 04:54 UTC NOAA

KRIC 170454Z 22009KT 10SM FEW160 SCT300 25/20 A2995 RMK AO2 SLP144 T02500200 403170183 $


Station Type Date Time Source
KRIC Decoded METAR 2019/06/17 04:54 UTC NOAA

RICHMOND INTERNATIONAL AIRPORT, VA, United States (KRIC) 37-31N 077-19W 50M
Jun 17, 2019 - 12:54 AM EDT / 2019.06.17 0454 UTC
Wind: from the SW (220 degrees) at 10 MPH (9 KT):0
Visibility: 10 mile(s):0
Sky conditions: partly cloudy
Temperature: 77.0 F (25.0 C)
Dew Point: 68.0 F (20.0 C)
Relative Humidity: 73%
Pressure (altimeter): 29.95 in. Hg (1014 hPa)
ob: KRIC 170454Z 22009KT 10SM FEW160 SCT300 25/20 A2995 RMK AO2 SLP144 T02500200 403170183
cycle: 5

Station Type Date Time Source
KRIC TAF 2019/06/17 06:22 UTC NOAA

TAF KRIC 170520Z 1706/1806 22009KT P6SM FEW160 SCT300
FM171500 23007KT P6SM SCT050
FM171900 22008KT P6SM BKN050

Example: see airport list